createdAt,value
2023-02-17T00:04:12.528Z,337.37
2023-02-17T00:09:12.503Z,337.37
2023-02-17T00:14:12.408Z,338.40
2023-02-17T00:19:12.334Z,338.40
2023-02-17T00:24:12.260Z,336.00
2023-02-17T00:29:12.216Z,330.32
2023-02-17T00:34:12.136Z,327.38
2023-02-17T00:39:12.099Z,326.42
2023-02-17T00:44:14.224Z,324.50
2023-02-17T00:49:11.949Z,321.05
2023-02-17T00:54:11.876Z,319.50
2023-02-17T00:59:11.817Z,316.15
2023-02-17T01:04:11.768Z,314.95
2023-02-17T01:09:29.179Z,311.99
2023-02-17T01:14:21.590Z,309.08
2023-02-17T01:19:21.505Z,308.22
2023-02-17T01:24:21.454Z,307.94
2023-02-17T01:29:21.382Z,308.80
2023-02-17T01:34:21.323Z,305.67
2023-02-17T01:39:21.242Z,304.27
2023-02-17T01:44:21.195Z,302.05
2023-02-17T01:49:21.108Z,301.23
2023-02-17T01:54:21.051Z,299.33
2023-02-17T01:59:20.970Z,299.05
2023-02-17T02:04:20.930Z,299.60
2023-02-17T02:09:20.838Z,296.91
2023-02-17T02:14:20.793Z,296.12
2023-02-17T02:19:20.706Z,296.65
2023-02-17T02:24:20.680Z,297.45
2023-02-17T02:29:20.593Z,295.07
2023-02-17T02:34:20.546Z,293.76
2023-02-17T02:39:20.490Z,292.72
2023-02-17T02:44:20.421Z,291.44
2023-02-17T02:49:20.319Z,291.69
2023-02-17T02:54:20.269Z,290.67
2023-02-17T02:59:20.164Z,291.18
2023-02-17T03:04:20.128Z,291.18
2023-02-17T03:09:20.057Z,291.95
2023-02-17T03:14:19.976Z,290.42
2023-02-17T03:19:19.927Z,289.66
2023-02-17T03:24:19.888Z,288.65
2023-02-17T03:29:19.789Z,286.65
2023-02-17T03:34:19.756Z,285.42
2023-02-17T03:39:19.733Z,284.69
2023-02-17T03:44:19.622Z,286.41
2023-02-17T03:49:19.537Z,286.65
2023-02-17T03:54:19.506Z,286.65
2023-02-17T03:59:19.387Z,286.65
2023-02-17T04:04:19.413Z,288.15
2023-02-17T04:09:19.265Z,287.90
2023-02-17T04:14:19.222Z,287.15
2023-02-17T04:19:21.161Z,288.65
2023-02-17T04:24:19.079Z,288.40
2023-02-17T04:29:18.997Z,289.40
2023-02-17T04:34:18.948Z,287.15
2023-02-17T04:39:18.839Z,287.40
2023-02-17T04:44:18.818Z,292.21
2023-02-17T04:49:18.725Z,296.91
2023-02-17T04:54:18.676Z,297.18
2023-02-17T04:59:18.592Z,297.45
2023-02-17T05:04:18.549Z,296.65
2023-02-17T05:09:18.479Z,297.18
2023-02-17T05:14:18.404Z,296.91
2023-02-17T05:19:34.322Z,292.72
2023-02-17T05:24:26.713Z,292.72
2023-02-17T05:29:26.663Z,293.76
2023-02-17T05:34:26.584Z,296.65
2023-02-17T05:39:26.546Z,296.38
2023-02-17T05:44:26.441Z,296.65
2023-02-17T05:49:26.402Z,298.79
2023-02-17T05:55:06.578Z,297.45
2023-02-17T06:00:06.405Z,297.71
2023-02-17T06:05:06.380Z,297.45
2023-02-17T06:10:06.287Z,297.45
2023-02-17T06:15:06.185Z,302.33
2023-02-17T06:20:06.130Z,303.99
2023-02-17T06:25:06.040Z,304.27
2023-02-17T06:30:06.038Z,303.99
2023-02-17T06:35:05.926Z,300.41
2023-02-17T06:40:05.877Z,296.91
2023-02-17T06:45:05.782Z,297.18
2023-02-17T06:50:05.712Z,296.38
2023-02-17T06:55:05.652Z,295.86
2023-02-17T07:00:05.620Z,296.65
2023-02-17T07:05:05.516Z,296.91
2023-02-17T07:10:05.467Z,296.12
2023-02-17T07:15:05.413Z,292.98
2023-02-17T07:20:05.325Z,294.02
2023-02-17T07:25:05.284Z,291.95
2023-02-17T07:30:05.255Z,298.25
2023-02-17T07:35:05.145Z,300.14
2023-02-17T07:40:05.059Z,303.99
2023-02-17T07:45:05.026Z,307.08
2023-02-17T07:50:04.920Z,310.24
2023-02-17T07:55:04.872Z,310.82
2023-02-17T08:00:04.803Z,309.37
2023-02-17T08:05:04.730Z,307.37
2023-02-17T08:10:04.667Z,304.83
2023-02-17T08:15:04.599Z,304.55
2023-02-17T08:20:08.640Z,307.65
2023-02-17T08:25:04.501Z,305.39
2023-02-17T08:30:04.472Z,304.83
2023-02-17T08:35:04.389Z,304.55
2023-02-17T08:40:04.305Z,303.71
2023-02-17T08:45:04.212Z,298.79
2023-02-17T08:50:04.143Z,299.33
2023-02-17T08:55:04.068Z,303.15
2023-02-17T09:00:05.605Z,301.23
2023-02-17T09:05:03.981Z,300.68
2023-02-17T09:10:03.910Z,297.45
2023-02-17T09:15:03.815Z,295.33
2023-02-17T09:20:05.064Z,294.02
2023-02-17T09:25:04.710Z,289.91
2023-02-17T09:30:03.672Z,289.40
2023-02-17T09:35:03.556Z,288.15
2023-02-17T09:40:03.487Z,289.15
2023-02-17T09:45:03.449Z,287.65
2023-02-17T09:50:03.348Z,283.47
2023-02-17T09:55:03.367Z,279.41
2023-02-17T10:00:03.242Z,274.33
2023-02-17T10:05:03.274Z,271.64
2023-02-17T10:10:03.154Z,273.20
2023-02-17T10:15:03.110Z,271.41
2023-02-17T10:20:02.994Z,276.39
2023-02-17T10:25:02.913Z,275.01
2023-02-17T10:30:02.928Z,271.86
2023-02-17T10:35:02.766Z,270.53
2023-02-17T10:40:02.690Z,267.91
2023-02-17T10:45:02.718Z,260.14
2023-02-17T10:50:02.593Z,254.74
2023-02-17T10:55:06.581Z,249.19
2023-02-17T11:00:03.419Z,244.78
2023-02-17T11:05:02.355Z,241.40
2023-02-17T11:10:02.278Z,230.98
2023-02-17T11:15:02.219Z,228.59
2023-02-17T11:20:02.146Z,221.42
2023-02-17T11:25:02.162Z,212.22
2023-02-17T11:30:02.056Z,210.20
2023-02-17T11:35:01.995Z,211.54
2023-02-17T11:40:01.924Z,209.67
2023-02-17T11:45:01.842Z,208.09
2023-02-17T11:50:01.781Z,208.35
2023-02-17T11:55:01.704Z,206.41
2023-02-17T12:00:01.590Z,206.02
2023-02-17T12:05:01.624Z,204.37
2023-02-17T12:10:01.496Z,205.64
2023-02-17T12:15:01.446Z,207.96
2023-02-17T12:20:01.344Z,213.58
2023-02-17T12:25:01.300Z,216.79
2023-02-17T12:30:01.282Z,218.94
2023-02-17T12:35:01.158Z,219.52
2023-02-17T12:40:01.629Z,220.39
2023-02-17T12:45:01.016Z,225.79
2023-02-17T12:50:00.935Z,227.03
2023-02-17T12:55:00.884Z,228.91
2023-02-17T13:00:00.832Z,232.76
2023-02-17T13:05:00.763Z,234.07
2023-02-17T13:10:00.752Z,236.41
2023-02-17T13:15:00.645Z,234.74
2023-02-17T13:20:00.567Z,232.76
2023-02-17T13:25:00.499Z,233.42
2023-02-17T13:30:00.482Z,233.09
2023-02-17T13:35:00.403Z,235.40
2023-02-17T13:40:00.301Z,236.41
2023-02-17T13:45:00.274Z,238.45
2023-02-17T13:50:00.179Z,240.70
2023-02-17T13:55:00.111Z,240.87
2023-02-17T14:00:00.091Z,235.57
2023-02-17T14:05:00.066Z,234.90
2023-02-17T14:09:59.890Z,235.57
2023-02-17T14:14:59.870Z,235.24
2023-02-17T14:19:59.759Z,235.74
2023-02-17T14:24:59.694Z,233.74
2023-02-17T14:29:59.689Z,235.24
2023-02-17T14:34:59.595Z,235.07
2023-02-17T14:39:59.480Z,235.07
2023-02-17T14:44:59.435Z,235.57
2023-02-17T14:49:59.377Z,232.93
2023-02-17T14:54:59.282Z,236.07
2023-02-17T14:59:59.239Z,233.58
2023-02-17T15:04:59.175Z,225.03
2023-02-17T15:09:59.116Z,229.86
2023-02-17T15:14:59.091Z,229.70
2023-02-17T15:19:58.945Z,230.66
2023-02-17T15:24:58.903Z,234.90
2023-02-17T15:29:58.929Z,238.96
2023-02-17T15:34:58.767Z,242.81
2023-02-17T15:39:58.673Z,242.63
2023-02-17T15:44:58.638Z,241.75
2023-02-17T15:49:58.550Z,244.42
2023-02-17T15:54:58.507Z,245.51
2023-02-17T15:59:58.416Z,242.99
2023-02-17T16:04:58.385Z,244.78
2023-02-17T16:09:58.277Z,245.69
2023-02-17T16:14:58.258Z,242.63
2023-02-17T16:19:58.141Z,242.99
2023-02-17T16:24:58.089Z,244.78
2023-02-17T16:29:58.076Z,246.24
2023-02-17T16:34:57.993Z,247.34
2023-02-17T16:39:57.886Z,249.76
2023-02-17T16:44:57.840Z,250.32
2023-02-17T16:49:57.766Z,249.57
2023-02-17T16:54:57.708Z,250.51
2023-02-17T16:59:57.610Z,247.34
2023-02-17T17:04:57.565Z,248.08
2023-02-17T17:10:15.299Z,248.08
2023-02-17T17:14:58.438Z,254.16
2023-02-17T17:19:57.357Z,259.52
2023-02-17T17:24:57.294Z,265.12
2023-02-17T17:29:57.244Z,268.34
2023-02-17T17:34:57.205Z,277.08
2023-02-17T17:39:57.062Z,272.30
2023-02-17T17:44:57.058Z,272.53
2023-02-17T17:49:56.947Z,273.65
2023-02-17T17:54:56.972Z,268.56
2023-02-17T17:59:56.828Z,265.97
2023-02-17T18:04:56.798Z,262.40
2023-02-17T18:09:56.802Z,261.57
2023-02-17T18:14:56.644Z,261.36
2023-02-17T18:19:56.677Z,260.14
2023-02-17T18:24:56.529Z,261.98
2023-02-17T18:29:56.523Z,259.93
2023-02-17T18:34:56.395Z,263.23
2023-02-17T18:39:56.341Z,265.12
2023-02-17T18:44:56.236Z,268.12
2023-02-17T18:49:56.183Z,268.99
2023-02-17T18:54:56.133Z,269.43
2023-02-17T18:59:56.036Z,268.99
2023-02-17T19:04:55.979Z,267.04
2023-02-17T19:09:55.905Z,266.40
2023-02-17T19:14:55.886Z,264.91
2023-02-17T19:19:55.775Z,266.40
2023-02-17T19:24:55.722Z,269.87
2023-02-17T19:29:55.644Z,270.97
2023-02-17T19:34:55.589Z,276.62
2023-02-17T19:39:55.481Z,277.08
2023-02-17T19:44:55.449Z,274.78
2023-02-17T19:49:55.368Z,271.19
2023-02-17T19:54:55.354Z,265.33
2023-02-17T19:59:55.244Z,261.36
2023-02-17T20:04:55.197Z,258.92
2023-02-17T20:09:55.145Z,254.94
2023-02-17T20:14:55.056Z,254.74
2023-02-17T20:19:54.997Z,255.33
2023-02-17T20:24:54.960Z,256.91
2023-02-17T20:29:54.865Z,258.11
2023-02-17T20:34:54.816Z,258.11
2023-02-17T20:39:54.743Z,260.54
2023-02-17T20:44:54.668Z,256.91
2023-02-17T20:49:54.604Z,257.31
2023-02-17T20:54:54.534Z,258.11
2023-02-17T20:59:54.461Z,260.54
2023-02-17T21:04:54.414Z,263.23
2023-02-17T21:09:54.321Z,262.19
2023-02-17T21:14:54.284Z,263.86
2023-02-17T21:19:54.171Z,263.02
2023-02-17T21:24:54.163Z,266.83
2023-02-17T21:29:54.097Z,272.75
2023-02-17T21:34:53.994Z,272.30
2023-02-17T21:39:53.998Z,275.01
2023-02-17T21:44:53.863Z,283.47
2023-02-17T21:49:53.802Z,288.40
2023-02-17T21:54:53.756Z,287.40
2023-02-17T21:59:53.655Z,286.65
2023-02-17T22:04:53.656Z,284.44
2023-02-17T22:09:53.558Z,285.67
2023-02-17T22:14:53.520Z,286.41
2023-02-17T22:19:53.387Z,286.16
2023-02-17T22:24:53.358Z,284.69
2023-02-17T22:29:53.333Z,282.51
2023-02-17T22:34:53.221Z,281.31
2023-02-17T22:39:53.136Z,278.01
2023-02-17T22:44:53.055Z,279.41
2023-02-17T22:49:52.994Z,280.36
2023-02-17T22:54:52.940Z,279.88
2023-02-17T22:59:52.840Z,281.79
2023-02-17T23:04:52.797Z,279.41
2023-02-17T23:09:52.759Z,279.65
2023-02-17T23:14:52.691Z,279.18
2023-02-17T23:19:52.600Z,277.77
2023-02-17T23:24:52.539Z,275.01
2023-02-17T23:29:52.469Z,273.88
2023-02-17T23:34:52.421Z,271.64
2023-02-17T23:39:52.325Z,267.69
2023-02-17T23:44:52.290Z,265.12
2023-02-17T23:49:52.196Z,264.49
2023-02-17T23:54:52.168Z,261.98
2023-02-17T23:59:52.064Z,261.78
